South, Virginia
Current Conditions -  °F | °C
As of 11:52 PM on Monday 20 Oct 2014 (Local Time) from KDCA Reporting Station
Light Rain Light Rain  
Wind Chill: 58°   Ceiling: 7500
Heat Index: 58°   Visibility: 10mi
Dew Point: 49°   Wind: 6mph
Humidity: 72%   Direction: 190°S
Pressure: 29.95"   Gusts: NA
Location:  38.8653°N, 77.09°W
Report Text: KDCA 210352Z 19005KT 10SM -RA FEW060 OVC075 14/09 A2995 RMK AO2 SLP140 P0001 T01440094
Loading
Personal Weather Stations






























Interactive Weather Map
Tropical Storm Tracking
New forecast layout! Learn more

10-Day Weather Forecast

Advertisements
Track Severe Weather on mobile